Time;durP1;ratioP1;P1;durP2;ratioP2;P2;SDS_P1;SDS_P2;PMS_P1;PMS_P2;Temp;Humidity;BMP_temperature;BMP_pressure;BME280_temperature;BME280_humidity;BME280_pressure;Samples;Min_cycle;Max_cycle;Signal;HPM_P1;HPM_P2
2021/09/25 00:00:07;;;;;;;11.23;10.00;;;17.60;99.90;;;;;;5011555;28;20808;-67
2021/09/25 00:02:36;;;;;;;10.47;9.37;;;17.60;99.90;;;;;;5023774;28;20526;-64
2021/09/25 00:05:04;;;;;;;12.37;9.77;;;17.60;99.90;;;;;;5025011;28;20431;-65
2021/09/25 00:07:29;;;;;;;11.47;10.27;;;17.30;99.90;;;;;;5009274;28;20463;-65
2021/09/25 00:09:55;;;;;;;12.20;9.90;;;17.40;99.90;;;;;;5024877;28;20513;-67
2021/09/25 00:12:21;;;;;;;10.00;9.00;;;17.40;99.90;;;;;;5008459;28;20188;-67
2021/09/25 00:14:46;;;;;;;12.30;8.70;;;17.50;99.90;;;;;;5020611;28;20205;-67
2021/09/25 00:17:13;;;;;;;10.07;8.97;;;17.40;99.90;;;;;;5023016;28;20254;-67
2021/09/25 00:19:40;;;;;;;10.97;8.87;;;17.20;99.90;;;;;;5041520;22;20293;-61
2021/09/25 00:22:06;;;;;;;13.30;9.80;;;17.40;99.90;;;;;;5024186;28;20860;-61
2021/09/25 00:24:32;;;;;;;13.17;8.90;;;17.40;99.90;;;;;;5004445;28;20436;-61
2021/09/25 00:26:58;;;;;;;11.10;9.90;;;17.30;99.90;;;;;;5026969;28;20291;-60
2021/09/25 00:29:24;;;;;;;11.50;8.90;;;17.20;99.90;;;;;;5024906;28;20562;-61
2021/09/25 00:31:50;;;;;;;9.00;8.10;;;17.10;99.90;;;;;;5025518;28;20276;-61
2021/09/25 00:34:16;;;;;;;11.73;9.53;;;17.00;99.90;;;;;;5031123;28;21080;-61
2021/09/25 00:36:42;;;;;;;9.97;8.90;;;17.00;99.90;;;;;;5025633;28;20250;-61
2021/09/25 00:39:08;;;;;;;10.40;9.30;;;16.90;99.90;;;;;;5024517;28;20822;-62
2021/09/25 00:41:34;;;;;;;15.13;8.27;;;16.90;99.90;;;;;;5008736;28;20187;-62
2021/09/25 00:44:00;;;;;;;10.30;9.30;;;17.20;99.90;;;;;;5006820;28;20831;-60
2021/09/25 00:46:27;;;;;;;9.30;8.23;;;17.30;99.90;;;;;;5005143;28;20577;-61
2021/09/25 00:48:53;;;;;;;12.63;9.40;;;17.20;99.90;;;;;;5021490;28;20431;-60
2021/09/25 00:51:18;;;;;;;11.97;9.33;;;17.20;99.90;;;;;;5024741;28;20938;-62
2021/09/25 00:53:44;;;;;;;16.70;9.90;;;17.00;99.90;;;;;;5024584;28;20199;-61
2021/09/25 00:56:11;;;;;;;11.87;9.77;;;16.70;99.90;;;;;;5022215;28;20216;-61
2021/09/25 00:58:38;;;;;;;11.53;8.80;;;16.60;99.90;;;;;;5024826;28;20227;-62
2021/09/25 01:01:05;;;;;;;12.37;8.33;;;16.60;99.90;;;;;;5023067;28;20444;-62
2021/09/25 01:03:31;;;;;;;10.63;9.13;;;16.80;99.90;;;;;;5023052;28;20432;-61
2021/09/25 01:05:57;;;;;;;10.77;9.30;;;17.00;99.90;;;;;;5007615;28;20466;-60
2021/09/25 01:08:23;;;;;;;10.33;9.20;;;17.10;99.90;;;;;;5025156;28;20937;-60
2021/09/25 01:10:53;;;;;;;9.83;8.50;;;17.20;99.90;;;;;;5021363;28;20573;-61
2021/09/25 01:13:20;;;;;;;9.57;8.47;;;16.90;99.90;;;;;;5024566;28;20181;-61
2021/09/25 01:15:46;;;;;;;10.10;8.50;;;16.90;99.90;;;;;;5022074;28;20545;-60
2021/09/25 01:18:13;;;;;;;11.30;9.60;;;16.80;99.90;;;;;;5022955;28;20444;-60
2021/09/25 01:20:39;;;;;;;8.90;8.00;;;16.80;99.90;;;;;;5023424;28;20451;-60
2021/09/25 01:23:06;;;;;;;10.97;8.47;;;16.70;99.90;;;;;;5021986;28;20431;-60
2021/09/25 01:25:32;;;;;;;9.73;8.57;;;16.70;99.90;;;;;;5012636;28;20449;-61
2021/09/25 01:27:59;;;;;;;11.93;9.80;;;16.70;99.90;;;;;;5008359;28;20466;-60
2021/09/25 01:30:25;;;;;;;12.20;9.47;;;16.70;99.90;;;;;;5023862;28;20576;-65
2021/09/25 01:32:52;;;;;;;10.73;9.10;;;16.70;99.90;;;;;;5023980;28;20434;-65
2021/09/25 01:35:20;;;;;;;9.80;8.40;;;16.90;99.90;;;;;;5007241;28;20467;-62
2021/09/25 01:37:47;;;;;;;13.00;9.67;;;16.90;99.90;;;;;;5021363;28;20763;-62
2021/09/25 01:40:14;;;;;;;10.00;9.00;;;16.70;99.90;;;;;;5009334;28;20423;-62
2021/09/25 01:42:40;;;;;;;10.80;9.07;;;16.60;99.90;;;;;;4989848;28;20957;-61
2021/09/25 01:45:06;;;;;;;9.90;8.70;;;16.70;99.90;;;;;;5024260;28;20472;-61
2021/09/25 01:47:32;;;;;;;12.27;9.30;;;16.80;99.90;;;;;;5023944;28;20462;-61
2021/09/25 01:50:04;;;;;;;11.80;9.43;;;17.00;99.90;;;;;;5021410;28;20427;-62
2021/09/25 01:52:30;;;;;;;13.73;9.33;;;17.00;99.90;;;;;;5025840;28;20477;-61
2021/09/25 01:54:55;;;;;;;14.80;9.30;;;16.70;99.90;;;;;;5005339;28;20485;-61
2021/09/25 01:57:21;;;;;;;12.03;9.30;;;16.50;99.90;;;;;;5022234;28;20448;-61
2021/09/25 01:59:47;;;;;;;11.60;9.07;;;16.30;99.90;;;;;;5022230;28;20192;-62
2021/09/25 02:02:13;;;;;;;10.53;9.50;;;16.50;99.90;;;;;;5022608;28;20187;-62
2021/09/25 02:04:46;;;;;;;11.67;8.63;;;16.50;99.90;;;;;;5023684;28;20186;-62
2021/09/25 02:07:16;;;;;;;12.17;9.67;;;16.50;99.90;;;;;;5024158;28;20444;-61
2021/09/25 02:09:43;;;;;;;11.70;9.40;;;16.40;99.90;;;;;;5017398;28;20435;-61
2021/09/25 02:12:12;;;;;;;11.70;9.60;;;16.30;99.90;;;;;;5023048;28;20462;-62
2021/09/25 02:14:39;;;;;;;10.77;9.47;;;16.20;99.90;;;;;;5026668;28;20827;-61
2021/09/25 02:17:05;;;;;;;12.00;8.67;;;16.20;99.90;;;;;;5022339;28;20501;-61
2021/09/25 02:19:31;;;;;;;11.53;8.23;;;16.10;99.90;;;;;;5010023;28;20439;-61
2021/09/25 02:21:57;;;;;;;11.30;9.00;;;16.10;99.90;;;;;;5023065;28;20477;-62
2021/09/25 02:24:22;;;;;;;11.20;8.67;;;15.90;99.90;;;;;;5006756;28;20204;-62
2021/09/25 02:26:48;;;;;;;15.10;9.73;;;16.20;99.90;;;;;;5007176;28;21063;-61
2021/09/25 02:29:14;;;;;;;11.40;9.10;;;15.90;99.90;;;;;;5023953;28;20200;-61
2021/09/25 02:31:41;;;;;;;11.50;9.03;;;15.70;99.90;;;;;;5022434;28;20247;-61
2021/09/25 02:34:07;;;;;;;12.33;10.70;;;15.30;99.90;;;;;;5024510;28;20188;-61
2021/09/25 02:36:33;;;;;;;11.00;8.83;;;15.30;99.90;;;;;;5021622;28;20973;-61
2021/09/25 02:39:01;;;;;;;9.63;7.70;;;15.50;99.90;;;;;;5023398;28;20188;-61
2021/09/25 02:41:27;;;;;;;9.80;8.37;;;15.40;99.90;;;;;;5028372;28;20264;-61
2021/09/25 02:43:52;;;;;;;9.30;8.10;;;15.40;99.90;;;;;;5024680;28;20451;-61
2021/09/25 02:46:18;;;;;;;10.80;8.60;;;15.50;99.90;;;;;;5027321;28;20866;-61
2021/09/25 02:48:46;;;;;;;8.33;7.53;;;15.50;99.90;;;;;;5029196;28;20173;-61
2021/09/25 02:51:12;;;;;;;9.80;8.63;;;15.50;99.90;;;;;;4995709;28;20419;-60
2021/09/25 02:53:37;;;;;;;9.33;8.30;;;15.60;99.90;;;;;;5028523;28;20469;-65
2021/09/25 02:56:03;;;;;;;9.67;8.53;;;15.90;99.90;;;;;;5023524;28;20563;-65
2021/09/25 02:58:29;;;;;;;9.50;8.40;;;16.00;99.90;;;;;;5027274;28;20292;-65
2021/09/25 03:00:55;;;;;;;9.47;8.50;;;15.80;99.90;;;;;;5009893;28;20242;-65
2021/09/25 03:03:27;;;;;;;9.37;8.10;;;15.90;99.90;;;;;;5022289;28;20533;-62
2021/09/25 03:05:52;;;;;;;10.33;8.57;;;16.00;99.90;;;;;;5025282;28;20606;-61
2021/09/25 03:08:18;;;;;;;14.13;8.67;;;16.10;99.90;;;;;;5025758;28;20909;-61
2021/09/25 03:13:13;;;;;;;10.23;8.63;;;16.30;99.90;;;;;;5006364;28;20452;-64
2021/09/25 03:15:39;;;;;;;11.13;8.50;;;16.30;99.90;;;;;;5008418;28;20463;-64
2021/09/25 03:18:04;;;;;;;9.60;8.60;;;15.90;99.90;;;;;;4975917;28;20244;-64
2021/09/25 03:20:30;;;;;;;9.00;8.07;;;15.80;99.90;;;;;;4989915;28;20614;-64
2021/09/25 03:22:56;;;;;;;10.43;8.57;;;15.90;99.90;;;;;;4973558;28;20197;-66
2021/09/25 03:25:21;;;;;;;11.30;9.13;;;16.10;99.90;;;;;;4987394;28;20206;-66
2021/09/25 03:27:50;;;;;;;10.30;8.07;;;16.10;99.90;;;;;;4974359;28;20562;-66
2021/09/25 03:30:16;;;;;;;14.60;9.17;;;16.10;99.90;;;;;;4972484;28;20839;-65
2021/09/25 03:32:45;;;;;;;10.57;8.43;;;16.10;99.90;;;;;;4957367;28;20424;-66
2021/09/25 03:35:11;;;;;;;9.67;8.67;;;16.00;99.90;;;;;;4973743;28;20209;-66
2021/09/25 03:37:37;;;;;;;10.13;9.03;;;15.90;99.90;;;;;;4988190;28;20823;-66
2021/09/25 03:40:04;;;;;;;12.23;8.40;;;15.40;99.90;;;;;;4988691;28;20508;-66
2021/09/25 03:42:29;;;;;;;13.33;8.87;;;15.50;99.90;;;;;;4989627;28;20814;-67
2021/09/25 03:44:55;;;;;;;10.47;9.03;;;15.50;99.90;;;;;;4987775;28;20449;-66
2021/09/25 03:47:21;;;;;;;10.67;7.97;;;15.60;99.90;;;;;;4988782;28;20201;-68
2021/09/25 03:49:46;;;;;;;9.63;8.17;;;15.70;99.90;;;;;;4988662;28;20185;-68
2021/09/25 03:52:12;;;;;;;12.30;9.20;;;15.40;99.90;;;;;;4985672;28;20178;-68
2021/09/25 03:54:38;;;;;;;9.77;7.90;;;15.10;99.90;;;;;;4991874;28;20532;-70
2021/09/25 03:57:04;;;;;;;11.00;8.43;;;15.20;99.90;;;;;;4988574;28;20737;-68
2021/09/25 03:59:29;;;;;;;9.07;8.03;;;15.40;99.90;;;;;;4973790;28;20232;-64
2021/09/25 04:01:55;;;;;;;11.37;8.47;;;15.50;99.90;;;;;;4987529;28;20276;-64
2021/09/25 04:04:21;;;;;;;9.90;8.40;;;15.40;99.90;;;;;;4988144;28;20276;-65
2021/09/25 04:06:47;;;;;;;12.03;8.90;;;15.50;99.90;;;;;;4971333;28;20225;-65
2021/09/25 04:09:15;;;;;;;12.90;9.40;;;15.60;99.90;;;;;;4987520;28;20935;-65
2021/09/25 04:11:48;;;;;;;9.93;8.50;;;15.60;99.90;;;;;;4987526;28;20693;-65
2021/09/25 04:14:19;;;;;;;14.23;8.17;;;15.80;99.90;;;;;;4990255;28;20465;-65
2021/09/25 04:16:48;;;;;;;10.67;8.17;;;15.60;99.90;;;;;;4986204;28;20469;-65
2021/09/25 04:19:14;;;;;;;9.33;8.33;;;15.60;99.90;;;;;;4988319;28;20788;-66
2021/09/25 04:21:40;;;;;;;11.23;8.50;;;15.70;99.90;;;;;;4989743;28;20417;-65
2021/09/25 04:24:06;;;;;;;8.60;7.70;;;15.80;99.90;;;;;;4986617;28;20201;-66
2021/09/25 04:26:31;;;;;;;10.80;9.00;;;15.80;99.90;;;;;;4986571;28;20440;-64
2021/09/25 04:28:57;;;;;;;8.43;7.40;;;15.80;99.90;;;;;;4988397;28;20194;-65
2021/09/25 04:31:24;;;;;;;9.80;7.97;;;15.70;99.90;;;;;;4987687;28;20732;-66
2021/09/25 04:33:50;;;;;;;9.70;8.30;;;15.20;99.90;;;;;;4988142;28;20700;-64
2021/09/25 04:36:15;;;;;;;9.20;7.20;;;15.30;99.90;;;;;;4990730;28;20562;-64
2021/09/25 04:38:41;;;;;;;11.20;7.90;;;15.30;99.90;;;;;;4986850;28;20515;-63
2021/09/25 04:41:07;;;;;;;8.73;7.80;;;14.90;99.90;;;;;;4988137;28;20208;-65
2021/09/25 04:43:32;;;;;;;14.00;8.97;;;15.10;99.90;;;;;;4987256;28;20341;-67
2021/09/25 04:46:01;;;;;;;8.80;7.90;;;15.10;99.90;;;;;;4987936;28;20201;-67
2021/09/25 04:48:27;;;;;;;9.67;8.20;;;15.10;99.90;;;;;;4987752;28;20206;-67
2021/09/25 04:50:52;;;;;;;14.43;8.87;;;15.10;99.90;;;;;;4987215;28;20436;-68
2021/09/25 04:53:18;;;;;;;10.00;8.10;;;15.30;99.90;;;;;;4988662;28;20731;-68
2021/09/25 04:55:45;;;;;;;12.10;8.47;;;15.20;99.90;;;;;;4968682;28;20554;-68
2021/09/25 04:58:12;;;;;;;9.63;7.97;;;14.80;99.90;;;;;;4987140;28;20445;-67
2021/09/25 05:00:38;;;;;;;10.80;8.80;;;14.30;99.90;;;;;;4988243;28;20428;-67
2021/09/25 05:03:04;;;;;;;13.27;8.17;;;14.20;99.90;;;;;;4986767;28;20448;-64
2021/09/25 05:05:30;;;;;;;9.93;7.97;;;14.30;99.90;;;;;;4989723;28;20433;-64
2021/09/25 05:07:56;;;;;;;9.73;8.10;;;14.60;99.90;;;;;;4987833;28;20524;-64
2021/09/25 05:10:22;;;;;;;9.10;8.20;;;14.40;99.90;;;;;;4986165;28;20532;-65
2021/09/25 05:12:47;;;;;;;11.97;8.07;;;14.40;99.90;;;;;;4986302;28;20256;-65
2021/09/25 05:15:14;;;;;;;9.20;8.00;;;14.30;99.90;;;;;;4986836;28;20288;-70
2021/09/25 05:17:43;;;;;;;9.27;7.47;;;14.50;99.90;;;;;;4972787;28;20201;-70
2021/09/25 05:20:10;;;;;;;7.47;6.63;;;14.50;99.90;;;;;;4986541;28;20448;-68
2021/09/25 05:22:37;;;;;;;9.67;8.30;;;14.30;99.90;;;;;;4969712;28;20516;-67
2021/09/25 05:25:06;;;;;;;10.93;8.20;;;14.40;99.90;;;;;;4988640;28;20428;-68
2021/09/25 05:27:31;;;;;;;8.00;7.17;;;14.20;99.90;;;;;;4986975;28;20766;-68
2021/09/25 05:29:57;;;;;;;8.80;6.73;;;14.50;99.90;;;;;;4985863;28;20939;-68
2021/09/25 05:32:23;;;;;;;10.70;7.90;;;14.20;99.90;;;;;;4956928;28;20209;-68
2021/09/25 05:34:48;;;;;;;7.47;6.70;;;14.40;99.90;;;;;;4985762;28;20685;-69
2021/09/25 05:37:17;;;;;;;9.77;8.77;;;14.00;99.90;;;;;;4988180;28;20297;-69
2021/09/25 05:39:43;;;;;;;13.67;9.60;;;14.00;99.90;;;;;;4987497;28;20185;-69
2021/09/25 05:42:09;;;;;;;11.30;7.80;;;14.10;99.90;;;;;;4971290;28;20998;-69
2021/09/25 05:44:35;;;;;;;10.33;7.90;;;14.20;99.90;;;;;;4986579;28;20457;-69
2021/09/25 05:47:01;;;;;;;10.57;8.73;;;14.20;99.90;;;;;;4986542;28;20284;-70
2021/09/25 05:49:27;;;;;;;10.33;8.77;;;14.20;99.90;;;;;;4968657;28;20528;-69
2021/09/25 05:51:53;;;;;;;11.67;9.40;;;14.10;99.90;;;;;;4968757;28;20528;-68
2021/09/25 05:54:18;;;;;;;10.17;8.90;;;14.20;99.90;;;;;;4986255;28;20206;-68
2021/09/25 05:56:44;;;;;;;12.20;8.30;;;14.00;99.90;;;;;;4986651;28;20209;-67
2021/09/25 05:59:10;;;;;;;10.73;9.23;;;13.80;99.90;;;;;;4988037;28;20181;-66
2021/09/25 06:01:36;;;;;;;10.80;9.07;;;14.20;99.90;;;;;;4983177;28;20906;-66
2021/09/25 06:04:02;;;;;;;14.30;10.17;;;14.30;99.90;;;;;;4987812;28;20225;-66
2021/09/25 06:06:28;;;;;;;12.27;9.30;;;14.40;99.90;;;;;;4970709;28;20437;-66
2021/09/25 06:08:54;;;;;;;11.87;9.07;;;14.50;99.90;;;;;;4986291;28;20445;-66
2021/09/25 06:11:20;;;;;;;14.53;9.93;;;14.50;99.90;;;;;;4971821;28;20201;-65
2021/09/25 06:13:46;;;;;;;14.60;10.40;;;14.30;99.90;;;;;;4984308;28;20425;-66
2021/09/25 06:16:12;;;;;;;12.87;10.00;;;14.30;99.90;;;;;;4970400;28;20213;-67
2021/09/25 06:18:38;;;;;;;12.40;9.60;;;14.20;99.90;;;;;;4985091;28;20531;-67
2021/09/25 06:21:04;;;;;;;12.87;9.60;;;14.30;99.90;;;;;;4986246;28;20564;-66
2021/09/25 06:23:29;;;;;;;13.27;9.53;;;14.40;99.90;;;;;;4987093;28;20576;-66
2021/09/25 06:25:55;;;;;;;11.67;9.47;;;14.50;99.90;;;;;;4968579;28;20196;-66
2021/09/25 06:28:20;;;;;;;10.83;9.73;;;14.40;99.90;;;;;;4984035;28;20224;-67
2021/09/25 06:30:46;;;;;;;13.93;10.70;;;14.30;99.90;;;;;;4971722;28;20186;-65
2021/09/25 06:33:12;;;;;;;10.60;9.17;;;14.50;99.90;;;;;;4985973;28;20236;-67
2021/09/25 06:35:38;;;;;;;15.50;8.60;;;14.40;99.90;;;;;;4986289;28;20276;-65
2021/09/25 06:38:04;;;;;;;9.50;8.10;;;14.40;99.90;;;;;;4985815;28;20210;-65
2021/09/25 06:40:30;;;;;;;8.50;7.57;;;14.50;99.90;;;;;;4986459;28;20186;-65
2021/09/25 06:42:56;;;;;;;10.23;9.13;;;14.60;99.90;;;;;;4985808;28;20788;-68
2021/09/25 06:45:22;;;;;;;11.67;8.80;;;14.70;99.90;;;;;;4988344;28;20200;-68
2021/09/25 06:47:48;;;;;;;9.70;8.70;;;14.80;99.90;;;;;;4985710;28;20214;-68
2021/09/25 06:50:14;;;;;;;11.20;9.40;;;14.90;99.90;;;;;;4985412;28;20463;-67
2021/09/25 06:52:39;;;;;;;8.73;7.63;;;15.10;99.90;;;;;;4986919;28;20225;-68
2021/09/25 06:55:07;;;;;;;10.53;9.43;;;15.10;99.90;;;;;;4986575;28;20475;-64
2021/09/25 06:57:33;;;;;;;11.80;9.37;;;15.30;99.90;;;;;;4986833;28;20202;-71
2021/09/25 06:59:58;;;;;;;8.77;7.87;;;15.50;99.90;;;;;;4985738;28;20803;-70
2021/09/25 07:02:24;;;;;;;10.60;8.97;;;15.60;99.90;;;;;;4971833;28;20873;-70
2021/09/25 07:04:50;;;;;;;10.63;8.70;;;15.70;99.90;;;;;;4988230;28;20190;-67
2021/09/25 07:07:17;;;;;;;10.10;8.93;;;15.80;99.90;;;;;;4985314;28;20239;-66
2021/09/25 07:09:43;;;;;;;10.07;8.70;;;15.80;99.90;;;;;;4965703;28;20194;-67
2021/09/25 07:12:09;;;;;;;10.20;8.90;;;15.90;99.90;;;;;;4986085;28;20433;-66
2021/09/25 07:14:35;;;;;;;11.57;9.43;;;15.90;99.90;;;;;;4986524;28;20233;-71
2021/09/25 07:17:01;;;;;;;9.73;8.73;;;15.90;99.90;;;;;;4982567;28;20500;-71
2021/09/25 07:19:26;;;;;;;11.50;9.00;;;16.10;99.90;;;;;;4986489;28;20609;-69
2021/09/25 07:21:52;;;;;;;12.20;9.60;;;16.20;99.90;;;;;;4985518;28;20216;-69
2021/09/25 07:24:18;;;;;;;10.00;9.00;;;16.30;99.90;;;;;;4985044;28;20293;-69
2021/09/25 07:26:43;;;;;;;9.90;8.90;;;16.30;99.90;;;;;;4988412;28;20213;-68
2021/09/25 07:29:09;;;;;;;9.27;8.17;;;16.40;99.90;;;;;;4989694;28;20178;-68
2021/09/25 07:31:35;;;;;;;9.83;8.60;;;16.40;99.90;;;;;;4973594;28;20186;-68
2021/09/25 07:34:01;;;;;;;12.53;9.30;;;16.40;99.90;;;;;;4987189;28;20228;-70
2021/09/25 07:36:27;;;;;;;10.73;9.20;;;16.40;99.90;;;;;;4988404;28;20441;-69
2021/09/25 07:38:54;;;;;;;9.63;8.40;;;16.40;99.90;;;;;;4990893;28;20197;-69
2021/09/25 07:41:20;;;;;;;10.07;7.77;;;16.30;99.90;;;;;;4988155;28;20513;-70
2021/09/25 07:43:46;;;;;;;8.27;7.17;;;16.40;99.90;;;;;;4988823;28;20452;-65
2021/09/25 07:46:11;;;;;;;8.50;7.60;;;16.50;99.90;;;;;;4987693;28;20429;-66
2021/09/25 07:48:37;;;;;;;11.00;8.40;;;16.40;99.90;;;;;;4990327;28;20214;-71
2021/09/25 07:51:03;;;;;;;8.50;7.60;;;16.40;99.90;;;;;;4972909;28;20390;-69
2021/09/25 07:53:29;;;;;;;9.20;7.90;;;16.40;99.90;;;;;;4986932;28;20731;-66
2021/09/25 07:55:54;;;;;;;8.57;7.60;;;16.40;99.90;;;;;;4975071;28;20978;-66
2021/09/25 07:58:20;;;;;;;8.17;7.37;;;16.40;99.90;;;;;;4989066;28;20209;-66
2021/09/25 08:00:47;;;;;;;9.90;8.50;;;16.40;99.90;;;;;;4987295;28;20228;-67
2021/09/25 08:03:12;;;;;;;10.00;7.90;;;16.50;99.90;;;;;;4972636;28;20178;-67
2021/09/25 08:05:38;;;;;;;8.63;6.57;;;16.60;99.90;;;;;;4988170;28;20436;-67
2021/09/25 08:08:04;;;;;;;8.47;7.40;;;16.50;99.90;;;;;;4987425;28;20739;-67
2021/09/25 08:10:29;;;;;;;10.57;8.70;;;16.60;99.90;;;;;;4987436;28;20190;-66
2021/09/25 08:12:55;;;;;;;9.50;7.50;;;16.50;99.90;;;;;;4989994;28;20453;-65
2021/09/25 08:15:21;;;;;;;8.63;6.43;;;16.60;99.90;;;;;;4990410;28;20288;-66
2021/09/25 08:17:47;;;;;;;12.50;10.20;;;16.70;99.90;;;;;;4988782;28;20206;-66
2021/09/25 08:20:15;;;;;;;9.97;8.10;;;16.80;99.90;;;;;;4989676;28;20421;-66
2021/09/25 08:22:42;;;;;;;10.63;8.60;;;16.80;99.90;;;;;;4992345;28;20711;-64
2021/09/25 08:25:09;;;;;;;10.07;8.67;;;16.80;99.90;;;;;;4986911;28;20451;-64
2021/09/25 08:27:38;;;;;;;11.70;8.63;;;16.90;99.90;;;;;;4987161;28;20445;-64
2021/09/25 08:30:05;;;;;;;10.57;8.17;;;16.90;99.90;;;;;;4988507;28;20520;-64
2021/09/25 08:32:31;;;;;;;11.17;9.10;;;16.90;99.90;;;;;;4987722;28;20828;-64
2021/09/25 08:34:56;;;;;;;13.50;10.03;;;17.10;99.90;;;;;;4986983;28;20469;-64
2021/09/25 08:37:22;;;;;;;11.70;9.20;;;17.20;99.90;;;;;;4988170;28;20206;-64
2021/09/25 08:39:51;;;;;;;10.70;8.23;;;17.20;99.90;;;;;;4968628;28;20190;-64
2021/09/25 08:42:19;;;;;;;9.50;8.47;;;17.40;99.90;;;;;;4986483;28;20468;-64
2021/09/25 08:44:51;;;;;;;11.67;8.93;;;17.30;99.90;;;;;;4988530;28;20853;-67
2021/09/25 08:47:21;;;;;;;8.97;8.03;;;17.20;99.90;;;;;;4967598;28;20507;-67
2021/09/25 08:49:48;;;;;;;10.93;9.80;;;17.50;99.90;;;;;;4988330;28;20421;-67
2021/09/25 08:52:14;;;;;;;11.30;9.50;;;17.60;99.90;;;;;;4985531;28;20440;-67
2021/09/25 08:54:40;;;;;;;11.67;10.07;;;17.60;99.90;;;;;;4987136;28;20843;-67
2021/09/25 08:57:06;;;;;;;9.00;8.00;;;17.60;99.90;;;;;;4971986;28;20445;-66
2021/09/25 08:59:32;;;;;;;9.43;8.53;;;17.70;99.90;;;;;;4985724;28;20456;-66
2021/09/25 09:02:13;;;;;;;12.93;9.70;;;17.70;99.90;;;;;;4971614;28;20456;-70
2021/09/25 09:04:47;;;;;;;10.63;7.80;;;17.70;99.90;;;;;;4987021;28;20777;-67
2021/09/25 09:07:20;;;;;;;11.97;9.13;;;17.90;99.90;;;;;;4986968;28;20487;-70
2021/09/25 09:09:47;;;;;;;10.13;8.53;;;18.10;99.90;;;;;;4984867;28;20429;-69
2021/09/25 09:12:13;;;;;;;9.50;8.10;;;18.10;99.90;;;;;;4987104;28;20524;-67
2021/09/25 09:14:47;;;;;;;13.70;9.03;;;18.10;99.90;;;;;;4986004;28;21042;-64
2021/09/25 09:17:31;;;;;;;11.50;8.47;;;18.20;99.90;;;;;;4973082;28;20441;-67
2021/09/25 09:19:57;;;;;;;9.40;8.20;;;18.30;99.90;;;;;;4985831;28;20524;-68
2021/09/25 09:22:25;;;;;;;10.10;7.97;;;18.30;99.90;;;;;;4989152;28;20424;-68
2021/09/25 09:24:54;;;;;;;8.73;7.60;;;18.30;99.90;;;;;;4967861;28;20524;-64
2021/09/25 09:27:23;;;;;;;8.60;7.80;;;18.50;99.90;;;;;;4986915;28;20567;-64
2021/09/25 09:29:49;;;;;;;8.80;7.23;;;18.60;99.90;;;;;;4971672;28;20842;-64
2021/09/25 09:32:15;;;;;;;9.90;8.43;;;18.60;99.90;;;;;;4990634;28;20490;-64
2021/09/25 09:34:45;;;;;;;12.10;9.80;;;18.70;99.90;;;;;;4986635;28;20205;-66
2021/09/25 09:37:20;;;;;;;12.67;11.00;;;18.80;99.90;;;;;;4987359;28;20471;-66
2021/09/25 09:40:02;;;;;;;10.80;7.03;;;18.80;99.90;;;;;;4987314;28;20471;-66
2021/09/25 09:42:53;;;;;;;11.93;10.00;;;18.90;99.90;;;;;;4984867;28;20425;-66
2021/09/25 09:45:27;;;;;;;14.13;10.20;;;19.00;99.90;;;;;;4984958;28;20895;-65
2021/09/25 09:47:53;;;;;;;10.40;9.40;;;19.10;99.90;;;;;;4985384;28;20453;-65
2021/09/25 09:50:22;;;;;;;9.80;8.07;;;19.10;99.90;;;;;;4986685;28;20816;-69
2021/09/25 09:52:48;;;;;;;7.77;6.97;;;19.20;99.90;;;;;;4974421;28;20206;-69
2021/09/25 09:55:23;;;;;;;8.40;7.50;;;19.30;99.90;;;;;;4967606;28;20477;-66
2021/09/25 09:58:09;;;;;;;8.43;7.20;;;19.40;99.90;;;;;;4984754;28;20209;-66
2021/09/25 10:00:36;;;;;;;7.00;6.30;;;19.50;99.90;;;;;;4987709;28;20433;-67
2021/09/25 10:03:02;;;;;;;9.83;8.47;;;19.70;99.90;;;;;;4986173;28;20760;-66
2021/09/25 10:05:28;;;;;;;8.27;7.47;;;19.50;99.90;;;;;;4985694;28;20448;-66
2021/09/25 10:07:54;;;;;;;10.47;6.30;;;19.50;99.90;;;;;;4988363;28;20464;-65
2021/09/25 10:10:24;;;;;;;14.80;10.97;;;19.60;99.90;;;;;;4987060;28;20433;-67
2021/09/25 10:12:51;;;;;;;13.13;9.37;;;19.70;99.90;;;;;;4984889;28;20471;-66
2021/09/25 10:15:18;;;;;;;8.40;7.30;;;19.90;99.90;;;;;;4970342;28;20472;-68
2021/09/25 10:17:47;;;;;;;9.23;7.33;;;19.90;99.90;;;;;;4984118;28;20999;-67
2021/09/25 10:20:12;;;;;;;8.10;7.30;;;20.10;99.90;;;;;;4988916;28;20436;-63
2021/09/25 10:22:44;;;;;;;8.40;7.60;;;20.10;99.90;;;;;;4987200;28;20532;-65
2021/09/25 10:25:12;;;;;;;10.07;8.60;;;20.20;99.90;;;;;;4971127;28;20217;-65
2021/09/25 10:27:41;;;;;;;13.50;11.77;;;20.20;99.90;;;;;;4988535;28;20471;-64
2021/09/25 10:30:11;;;;;;;11.60;6.77;;;20.30;99.90;;;;;;4985478;28;20432;-64
2021/09/25 10:32:50;;;;;;;9.70;8.67;;;20.40;99.90;;;;;;4985763;28;20747;-65
2021/09/25 10:35:21;;;;;;;8.40;6.70;;;20.30;99.90;;;;;;4986407;28;20460;-66
2021/09/25 10:37:52;;;;;;;11.33;9.50;;;20.40;99.90;;;;;;4984079;28;20463;-64
2021/09/25 10:40:23;;;;;;;7.53;6.67;;;20.50;99.90;;;;;;4987650;28;20424;-64
2021/09/25 10:42:52;;;;;;;11.77;8.80;;;20.50;99.90;;;;;;4989830;28;20420;-65
2021/09/25 10:45:38;;;;;;;9.47;8.47;;;20.70;99.90;;;;;;4969513;28;20491;-65
2021/09/25 10:48:22;;;;;;;7.47;6.70;;;20.70;99.90;;;;;;4984437;28;20480;-66
2021/09/25 10:50:52;;;;;;;13.63;7.73;;;20.70;99.90;;;;;;4987717;28;20852;-67
2021/09/25 10:53:22;;;;;;;7.00;6.30;;;20.90;99.90;;;;;;4986688;28;20524;-66
2021/09/25 10:55:53;;;;;;;8.13;6.70;;;20.90;99.90;;;;;;4970065;28;21039;-66
2021/09/25 10:58:25;;;;;;;8.57;6.70;;;21.00;99.90;;;;;;4969537;28;20433;-64
2021/09/25 11:01:07;;;;;;;12.37;8.07;;;21.00;99.90;;;;;;4990594;28;20436;-69
2021/09/25 11:03:48;;;;;;;7.77;7.07;;;21.10;99.90;;;;;;4979915;28;20453;-65
2021/09/25 11:06:28;;;;;;;7.53;6.83;;;21.20;99.90;;;;;;4988936;28;20424;-66
2021/09/25 11:09:05;;;;;;;6.97;6.27;;;21.20;99.90;;;;;;4976068;28;20703;-67
2021/09/25 11:11:32;;;;;;;7.50;6.70;;;21.40;99.90;;;;;;4989023;28;20566;-65
2021/09/25 11:14:01;;;;;;;7.73;6.63;;;21.50;99.90;;;;;;4973350;28;20429;-65
2021/09/25 11:16:46;;;;;;;7.87;6.63;;;21.60;99.90;;;;;;4990290;28;20918;-62
2021/09/25 11:19:21;;;;;;;7.40;6.70;;;21.70;99.90;;;;;;4991859;28;20431;-69
2021/09/25 11:22:19;;;;;;;8.53;7.63;;;21.70;99.90;;;;;;4993507;28;21010;-67
2021/09/25 11:24:58;;;;;;;7.27;6.30;;;21.70;99.90;;;;;;4986669;28;20998;-65
2021/09/25 11:27:29;;;;;;;7.27;6.57;;;21.90;99.90;;;;;;4986835;28;20448;-66
2021/09/25 11:30:17;;;;;;;6.70;6.10;;;22.00;99.90;;;;;;4989948;28;20419;-71
2021/09/25 11:32:47;;;;;;;8.10;7.30;;;22.10;99.90;;;;;;4986010;28;20583;-66
2021/09/25 11:35:15;;;;;;;7.23;6.53;;;22.30;99.90;;;;;;4989272;28;20811;-63
2021/09/25 11:38:06;;;;;;;7.30;6.70;;;22.50;99.90;;;;;;4992764;28;20520;-65
2021/09/25 11:40:50;;;;;;;7.60;6.90;;;22.60;99.90;;;;;;4987405;28;20446;-65
2021/09/25 11:43:22;;;;;;;7.37;6.73;;;22.80;99.90;;;;;;4988341;28;20439;-68
2021/09/25 11:45:55;;;;;;;6.90;5.83;;;22.90;99.90;;;;;;4990641;28;20468;-65
2021/09/25 11:48:25;;;;;;;6.50;5.90;;;23.00;99.90;;;;;;4988718;28;20456;-69
2021/09/25 11:50:53;;;;;;;6.53;5.93;;;23.30;99.90;;;;;;4988486;28;20951;-66
2021/09/25 11:53:21;;;;;;;6.90;6.30;;;23.60;99.90;;;;;;4988584;28;20424;-66
2021/09/25 11:55:48;;;;;;;7.37;6.67;;;24.60;99.90;;;;;;4971513;28;20987;-63
2021/09/25 11:58:16;;;;;;;7.33;6.17;;;25.60;99.90;;;;;;4988657;28;20453;-68
2021/09/25 12:01:03;;;;;;;6.13;5.63;;;26.60;99.90;;;;;;4992154;28;20440;-68
2021/09/25 12:03:32;;;;;;;6.20;5.70;;;27.60;99.90;;;;;;4987487;28;20806;-69
2021/09/25 12:06:00;;;;;;;7.27;6.67;;;;;;;;;;4987479;28;20927;-68
2021/09/25 12:08:28;;;;;;;6.50;5.90;;;29.90;99.90;;;;;;4988098;28;20534;-64
2021/09/25 12:10:55;;;;;;;5.90;5.40;;;30.60;99.90;;;;;;4987138;28;20538;-65
2021/09/25 12:13:43;;;;;;;6.33;5.17;;;31.60;99.90;;;;;;4988795;28;20436;-66
2021/09/25 12:16:17;;;;;;;5.93;5.43;;;32.60;96.50;;;;;;4989478;28;20880;-67
2021/09/25 12:18:47;;;;;;;6.30;5.80;;;33.70;94.30;;;;;;4987483;28;20426;-67
2021/09/25 12:21:22;;;;;;;8.70;5.60;;;34.70;90.70;;;;;;4969496;28;20394;-65
2021/09/25 12:24:10;;;;;;;6.17;5.53;;;34.90;87.20;;;;;;4971328;28;20873;-64
2021/09/25 12:26:42;;;;;;;5.50;5.00;;;35.60;84.50;;;;;;4989383;28;20925;-69
2021/09/25 12:29:14;;;;;;;6.00;5.50;;;35.40;77.80;;;;;;4988608;28;20428;-70
2021/09/25 12:31:40;;;;;;;5.20;4.80;;;36.00;75.70;;;;;;4984049;28;20625;-70
2021/09/25 12:34:14;;;;;;;5.97;5.37;;;36.90;72.50;;;;;;4990148;28;20501;-66
2021/09/25 12:36:43;;;;;;;5.77;5.37;;;36.30;71.10;;;;;;4984662;28;20248;-66
2021/09/25 12:39:14;;;;;;;5.30;4.90;;;36.90;69.40;;;;;;4987412;28;20597;-66
2021/09/25 12:41:49;;;;;;;7.40;5.67;;;37.40;65.50;;;;;;4975746;28;20415;-69
2021/09/25 12:44:17;;;;;;;5.60;5.20;;;37.60;64.50;;;;;;4987288;28;20408;-69
2021/09/25 12:46:53;;;;;;;7.57;5.50;;;36.80;66.00;;;;;;4987321;28;20434;-69